createdAt,value
2022-12-27T00:02:19.202Z,9.80
2022-12-27T00:04:46.189Z,9.80
2022-12-27T00:07:20.134Z,9.80
2022-12-27T00:09:47.058Z,9.80
2022-12-27T00:12:20.112Z,9.70
2022-12-27T00:14:47.022Z,9.80
2022-12-27T00:17:20.213Z,9.80
2022-12-27T00:19:54.154Z,9.80
2022-12-27T00:22:34.080Z,9.70
2022-12-27T00:25:14.125Z,9.70
2022-12-27T00:27:47.102Z,9.70
2022-12-27T00:30:13.991Z,9.70
2022-12-27T00:32:47.141Z,9.70
2022-12-27T00:35:14.071Z,9.70
2022-12-27T00:37:47.160Z,9.70
2022-12-27T00:40:14.039Z,9.70
2022-12-27T00:42:47.112Z,9.70
2022-12-27T00:45:20.112Z,9.70
2022-12-27T00:47:46.971Z,9.70
2022-12-27T00:50:20.197Z,9.70
2022-12-27T00:52:53.163Z,9.70
2022-12-27T00:55:26.117Z,9.70
2022-12-27T00:57:52.984Z,9.70
2022-12-27T01:00:26.113Z,9.60
2022-12-27T01:02:52.982Z,9.60
2022-12-27T01:05:26.133Z,9.60
2022-12-27T01:07:53.139Z,9.60
2022-12-27T01:10:27.128Z,9.60
2022-12-27T01:13:00.160Z,9.60
2022-12-27T01:15:33.154Z,9.60
2022-12-27T01:18:06.116Z,9.60
2022-12-27T01:20:33.011Z,9.60
2022-12-27T01:23:13.161Z,9.60
2022-12-27T01:25:46.128Z,9.60
2022-12-27T01:28:13.014Z,9.60
2022-12-27T01:30:46.122Z,9.60
2022-12-27T01:33:13.073Z,9.60
2022-12-27T01:35:46.154Z,9.60
2022-12-27T01:38:13.045Z,9.60
2022-12-27T01:40:46.168Z,9.60
2022-12-27T01:43:17.088Z,9.60
2022-12-27T01:45:51.146Z,9.60
2022-12-27T01:48:29.174Z,9.60
2022-12-27T01:50:58.936Z,9.50
2022-12-27T01:53:35.163Z,9.50
2022-12-27T01:56:15.118Z,9.50
2022-12-27T01:58:44.401Z,9.50
2022-12-27T02:01:20.242Z,9.50
2022-12-27T02:03:49.966Z,9.50
2022-12-27T02:06:25.113Z,9.50
2022-12-27T02:09:08.151Z,9.50
2022-12-27T02:12:00.191Z,9.50
2022-12-27T02:14:41.389Z,9.50
2022-12-27T02:17:20.193Z,9.50
2022-12-27T02:20:03.162Z,9.50
2022-12-27T02:23:17.201Z,9.50
2022-12-27T02:26:14.176Z,9.50
2022-12-27T02:28:50.392Z,9.50
2022-12-27T02:31:29.162Z,9.50
2022-12-27T02:33:58.745Z,9.50
2022-12-27T02:36:37.153Z,9.50
2022-12-27T02:39:05.191Z,9.50
2022-12-27T02:41:58.143Z,9.40
2022-12-27T02:44:44.044Z,9.40
2022-12-27T02:47:42.152Z,9.50
2022-12-27T02:50:28.511Z,9.50
2022-12-27T02:53:21.154Z,9.40
2022-12-27T02:56:25.513Z,9.40
2022-12-27T02:59:18.102Z,9.40
2022-12-27T03:02:22.276Z,9.40
2022-12-27T03:04:55.622Z,9.40
2022-12-27T03:07:32.175Z,9.40
2022-12-27T03:10:26.211Z,9.40
2022-12-27T03:13:25.148Z,9.40
2022-12-27T03:15:58.075Z,9.40
2022-12-27T03:18:35.174Z,9.40
2022-12-27T03:21:21.837Z,9.40
2022-12-27T03:24:21.156Z,9.40
2022-12-27T03:26:55.283Z,9.30
2022-12-27T03:29:48.151Z,9.30
2022-12-27T03:32:34.722Z,9.30
2022-12-27T03:35:28.142Z,9.30
2022-12-27T03:38:05.318Z,9.30
2022-12-27T03:40:41.214Z,9.30
2022-12-27T03:43:11.744Z,9.30
2022-12-27T03:46:24.299Z,9.30
2022-12-27T03:48:56.915Z,9.30
2022-12-27T03:51:31.230Z,9.20
2022-12-27T03:54:06.177Z,9.20
2022-12-27T03:56:40.121Z,9.20
2022-12-27T03:59:07.831Z,9.20
2022-12-27T04:01:41.248Z,9.20
2022-12-27T04:04:08.222Z,9.20
2022-12-27T04:06:41.193Z,9.20
2022-12-27T04:09:28.333Z,9.20
2022-12-27T04:12:20.157Z,9.20
2022-12-27T04:15:05.743Z,9.10
2022-12-27T04:17:58.181Z,9.10
2022-12-27T04:20:43.801Z,9.00
2022-12-27T04:23:36.162Z,8.90
2022-12-27T04:26:28.200Z,8.90
2022-12-27T04:29:13.864Z,8.80
2022-12-27T04:32:06.164Z,8.70
2022-12-27T04:34:45.116Z,8.70
2022-12-27T04:37:24.201Z,8.70
2022-12-27T04:40:11.379Z,8.60
2022-12-27T04:43:03.161Z,8.50
2022-12-27T04:45:48.512Z,8.50
2022-12-27T04:48:41.150Z,8.50
2022-12-27T04:51:27.305Z,8.50
2022-12-27T04:54:19.157Z,8.40
2022-12-27T04:56:46.027Z,8.40
2022-12-27T04:59:38.186Z,8.40
2022-12-27T05:02:05.346Z,8.30
2022-12-27T05:04:40.293Z,8.30
2022-12-27T05:07:34.204Z,8.30
2022-12-27T05:10:29.186Z,8.30
2022-12-27T05:13:21.190Z,8.30
2022-12-27T05:15:48.909Z,8.20
2022-12-27T05:18:22.211Z,8.20
2022-12-27T05:20:49.396Z,8.20
2022-12-27T05:23:48.205Z,8.20
2022-12-27T05:26:19.132Z,8.10
2022-12-27T05:28:53.206Z,8.10
2022-12-27T05:31:21.188Z,8.10
2022-12-27T05:33:55.205Z,8.10
2022-12-27T05:36:29.262Z,8.00
2022-12-27T05:39:03.185Z,8.00
2022-12-27T05:41:30.081Z,8.00
2022-12-27T05:44:07.341Z,8.00
2022-12-27T05:46:42.228Z,7.90
2022-12-27T05:49:16.186Z,7.90
2022-12-27T05:51:43.159Z,7.90
2022-12-27T05:54:17.242Z,7.90
2022-12-27T05:56:44.136Z,7.90
2022-12-27T05:59:17.208Z,7.90
2022-12-27T06:01:44.276Z,7.80
2022-12-27T06:04:18.185Z,7.80
2022-12-27T06:06:45.154Z,7.80
2022-12-27T06:09:19.197Z,7.80
2022-12-27T06:11:46.134Z,7.80
2022-12-27T06:14:20.210Z,7.80
2022-12-27T06:16:47.164Z,7.70
2022-12-27T06:19:20.181Z,7.70
2022-12-27T06:21:53.218Z,7.70
2022-12-27T06:24:33.234Z,7.60
2022-12-27T06:27:06.486Z,7.60
2022-12-27T06:29:41.223Z,7.60
2022-12-27T06:32:14.169Z,7.60
2022-12-27T06:34:47.242Z,7.60
2022-12-27T06:37:14.264Z,7.50
2022-12-27T06:39:48.221Z,7.50
2022-12-27T06:42:21.248Z,7.50
2022-12-27T06:44:48.312Z,7.50
2022-12-27T06:47:22.188Z,7.40
2022-12-27T06:49:59.229Z,7.40
2022-12-27T06:52:26.609Z,7.40
2022-12-27T06:55:00.267Z,7.40
2022-12-27T06:57:27.232Z,7.40
2022-12-27T07:00:00.221Z,7.40
2022-12-27T07:02:33.415Z,7.40
2022-12-27T07:05:00.823Z,7.30
2022-12-27T07:07:34.231Z,7.30
2022-12-27T07:10:01.169Z,7.30
2022-12-27T07:12:36.801Z,7.30
2022-12-27T07:15:05.396Z,7.30
2022-12-27T07:17:39.221Z,7.30
2022-12-27T07:20:14.288Z,7.30
2022-12-27T07:22:47.361Z,7.20
2022-12-27T07:25:30.273Z,7.20
2022-12-27T07:28:04.258Z,7.20
2022-12-27T07:30:32.663Z,7.20
2022-12-27T07:33:06.282Z,7.20
2022-12-27T07:35:33.279Z,7.20
2022-12-27T07:38:07.322Z,7.20
2022-12-27T07:40:43.264Z,7.40
2022-12-27T07:43:10.172Z,8.00
2022-12-27T07:45:43.297Z,8.70
2022-12-27T07:48:10.296Z,9.20
2022-12-27T07:50:44.241Z,9.30
2022-12-27T07:53:17.262Z,9.20
2022-12-27T07:55:47.265Z,8.90
2022-12-27T07:58:14.235Z,8.60
2022-12-27T08:00:47.322Z,8.30
2022-12-27T08:03:21.234Z,8.10
2022-12-27T08:05:49.648Z,8.00
2022-12-27T08:08:24.253Z,7.80
2022-12-27T08:10:51.251Z,7.70
2022-12-27T08:13:25.206Z,7.60
2022-12-27T08:15:52.526Z,7.50
2022-12-27T08:18:26.193Z,7.40
2022-12-27T08:20:59.247Z,7.40
2022-12-27T08:23:32.421Z,7.40
2022-12-27T08:26:12.256Z,7.40
2022-12-27T08:28:46.239Z,7.40
2022-12-27T08:31:14.131Z,7.40
2022-12-27T08:33:53.637Z,7.40
2022-12-27T08:39:18.222Z,8.00
2022-12-27T08:41:45.397Z,8.70
2022-12-27T08:44:19.181Z,9.70
2022-12-27T08:46:46.151Z,10.60
2022-12-27T08:49:19.222Z,11.50
2022-12-27T08:51:46.119Z,12.30
2022-12-27T08:54:12.982Z,13.10
2022-12-27T08:56:46.202Z,13.70
2022-12-27T08:59:13.131Z,14.10
2022-12-27T09:01:46.288Z,14.70
2022-12-27T09:04:13.383Z,15.10
2022-12-27T09:06:47.229Z,15.60
2022-12-27T09:09:14.190Z,16.10
2022-12-27T09:11:48.222Z,16.50
2022-12-27T09:14:21.186Z,16.80
2022-12-27T09:16:54.197Z,17.10
2022-12-27T09:19:27.214Z,17.40
2022-12-27T09:21:54.112Z,17.80
2022-12-27T09:24:46.489Z,17.90
2022-12-27T09:27:19.514Z,18.10
2022-12-27T09:29:53.256Z,18.30
2022-12-27T09:33:22.617Z,18.60
2022-12-27T09:37:58.911Z,18.80
2022-12-27T09:40:32.203Z,18.70
2022-12-27T09:43:20.668Z,18.50
2022-12-27T09:45:58.238Z,18.30
2022-12-27T09:48:35.242Z,18.20
2022-12-27T09:51:05.463Z,18.10
2022-12-27T09:53:59.480Z,18.00
2022-12-27T09:56:40.931Z,17.80
2022-12-27T09:59:27.229Z,17.80
2022-12-27T10:01:54.248Z,17.70
2022-12-27T10:04:21.404Z,17.50
2022-12-27T10:06:58.449Z,17.40
2022-12-27T10:09:25.456Z,17.30
2022-12-27T10:12:11.260Z,17.20
2022-12-27T10:14:38.102Z,17.20
2022-12-27T10:17:14.229Z,17.10
2022-12-27T10:19:57.964Z,17.00
2022-12-27T10:22:31.277Z,16.80
2022-12-27T10:25:07.503Z,16.60
2022-12-27T10:27:49.211Z,16.20
2022-12-27T10:30:20.103Z,15.80
2022-12-27T10:32:54.236Z,15.50
2022-12-27T10:35:28.281Z,15.30
2022-12-27T10:38:03.209Z,15.00
2022-12-27T10:40:44.195Z,14.80
2022-12-27T10:43:30.240Z,14.50
2022-12-27T10:46:10.598Z,14.20
2022-12-27T10:49:19.376Z,13.80
2022-12-27T10:51:42.263Z,13.40
2022-12-27T10:54:16.354Z,13.00
2022-12-27T10:56:51.252Z,12.60
2022-12-27T10:59:22.641Z,12.30
2022-12-27T11:01:59.356Z,12.00
2022-12-27T11:04:33.230Z,11.80
2022-12-27T11:07:00.087Z,11.60
2022-12-27T11:09:46.283Z,11.40
2022-12-27T11:12:19.132Z,11.30
2022-12-27T11:15:06.376Z,11.30
2022-12-27T11:17:44.190Z,11.20
2022-12-27T11:20:38.214Z,11.10
2022-12-27T11:23:19.376Z,11.10
2022-12-27T11:26:01.215Z,11.10
2022-12-27T11:28:34.217Z,11.10
2022-12-27T11:31:02.689Z,11.10
2022-12-27T11:33:46.261Z,11.00
2022-12-27T11:36:14.242Z,11.00
2022-12-27T11:38:50.264Z,10.90
2022-12-27T11:41:29.777Z,10.90
2022-12-27T11:44:07.345Z,10.90
2022-12-27T11:46:37.251Z,10.90
2022-12-27T11:49:13.259Z,10.90
2022-12-27T11:51:58.651Z,10.90
2022-12-27T11:54:36.251Z,10.90
2022-12-27T11:57:06.219Z,10.90
2022-12-27T11:59:44.239Z,10.90
2022-12-27T12:02:29.385Z,10.90
2022-12-27T12:05:21.281Z,10.90
2022-12-27T12:08:08.514Z,10.80
2022-12-27T12:10:57.264Z,10.90
2022-12-27T12:13:46.272Z,10.80
2022-12-27T12:16:16.198Z,10.80
2022-12-27T12:18:49.249Z,10.80
2022-12-27T12:21:41.217Z,10.80
2022-12-27T12:24:33.208Z,10.80
2022-12-27T12:27:32.324Z,10.80
2022-12-27T12:30:27.402Z,10.70
2022-12-27T12:33:20.407Z,10.70
2022-12-27T12:35:53.282Z,10.60
2022-12-27T12:38:28.210Z,10.40
2022-12-27T12:40:55.021Z,10.30
2022-12-27T12:43:40.217Z,10.30
2022-12-27T12:46:10.152Z,10.20
2022-12-27T12:48:50.312Z,10.10
2022-12-27T12:51:23.422Z,10.10
2022-12-27T12:54:16.282Z,10.00
2022-12-27T12:56:54.505Z,9.90
2022-12-27T12:59:47.328Z,9.80
2022-12-27T13:02:17.481Z,9.80
2022-12-27T13:05:03.326Z,9.80
2022-12-27T13:07:48.218Z,9.80
2022-12-27T13:10:31.222Z,9.80
2022-12-27T13:13:01.951Z,9.90
2022-12-27T13:15:54.248Z,9.90
2022-12-27T13:18:30.664Z,10.00
2022-12-27T13:21:21.229Z,10.00
2022-12-27T13:24:08.354Z,10.10
2022-12-27T13:26:35.247Z,10.10
2022-12-27T13:29:27.343Z,10.20
2022-12-27T13:32:01.083Z,10.20
2022-12-27T13:34:53.302Z,10.20
2022-12-27T13:37:24.547Z,10.20
2022-12-27T13:40:07.291Z,10.20
2022-12-27T13:42:34.172Z,10.20
2022-12-27T13:45:10.311Z,10.10
2022-12-27T13:47:45.979Z,10.10
2022-12-27T13:50:34.328Z,10.10
2022-12-27T13:53:19.495Z,10.10
2022-12-27T13:55:53.333Z,10.00
2022-12-27T13:58:32.563Z,10.00
2022-12-27T14:01:18.409Z,10.00
2022-12-27T14:04:01.323Z,10.00
2022-12-27T14:06:36.355Z,10.00
2022-12-27T14:09:28.314Z,9.90
2022-12-27T14:12:20.293Z,9.90
2022-12-27T14:14:47.563Z,9.80
2022-12-27T14:17:35.358Z,9.80
2022-12-27T14:20:02.298Z,9.80
2022-12-27T14:22:54.128Z,9.80
2022-12-27T14:25:51.334Z,9.70
2022-12-27T14:28:59.450Z,9.70
2022-12-27T14:31:27.014Z,9.70
2022-12-27T14:34:22.440Z,9.70
2022-12-27T14:36:58.213Z,9.60
2022-12-27T14:39:31.355Z,9.60
2022-12-27T14:42:04.315Z,9.60
2022-12-27T14:44:56.316Z,9.60
2022-12-27T14:47:39.343Z,9.50
2022-12-27T14:50:24.944Z,9.40
2022-12-27T14:52:58.326Z,9.30
2022-12-27T14:55:31.985Z,9.20
2022-12-27T14:58:05.349Z,9.10
2022-12-27T15:00:50.100Z,9.10
2022-12-27T15:03:27.500Z,9.00
2022-12-27T15:06:33.868Z,9.00
2022-12-27T15:09:26.344Z,8.90
2022-12-27T15:12:04.349Z,9.00
2022-12-27T15:14:31.421Z,8.90
2022-12-27T15:17:23.403Z,8.90
2022-12-27T15:19:53.749Z,8.80
2022-12-27T15:22:42.349Z,8.70
2022-12-27T15:25:41.283Z,8.60
2022-12-27T15:28:29.880Z,8.50
2022-12-27T15:31:06.275Z,8.50
2022-12-27T15:33:40.901Z,8.50
2022-12-27T15:36:07.816Z,8.40
2022-12-27T15:38:48.296Z,8.40
2022-12-27T15:41:48.398Z,8.40
2022-12-27T15:44:22.266Z,8.30
2022-12-27T15:47:07.838Z,8.30
2022-12-27T15:50:00.298Z,8.30
2022-12-27T15:52:36.142Z,8.30
2022-12-27T15:55:29.259Z,8.20
2022-12-27T15:57:59.218Z,8.20
2022-12-27T16:00:34.794Z,8.20
2022-12-27T16:03:03.689Z,8.20
2022-12-27T16:05:53.313Z,8.20
2022-12-27T16:08:28.559Z,8.10
2022-12-27T16:11:03.329Z,8.10
2022-12-27T16:13:42.869Z,8.00
2022-12-27T16:16:32.948Z,7.80
2022-12-27T16:19:15.428Z,7.70
2022-12-27T16:21:44.354Z,7.70
2022-12-27T16:24:20.757Z,7.70
2022-12-27T16:26:57.482Z,7.80
2022-12-27T16:29:34.362Z,7.80
2022-12-27T16:32:14.554Z,7.80
2022-12-27T16:34:49.435Z,7.70
2022-12-27T16:37:24.992Z,7.60
2022-12-27T16:40:26.044Z,7.50
2022-12-27T16:43:06.244Z,7.50
2022-12-27T16:45:33.266Z,7.50
2022-12-27T16:48:09.655Z,7.50
2022-12-27T16:50:46.336Z,7.60
2022-12-27T16:56:09.267Z,7.60
2022-12-27T16:58:37.668Z,7.70
2022-12-27T17:01:31.370Z,7.70
2022-12-27T17:04:05.253Z,7.80
2022-12-27T17:06:38.035Z,7.70
2022-12-27T17:09:17.303Z,7.70
2022-12-27T17:11:50.234Z,7.60
2022-12-27T17:14:32.274Z,7.50
2022-12-27T17:17:10.251Z,7.40
2022-12-27T17:19:44.443Z,7.30
2022-12-27T17:22:20.289Z,7.20
2022-12-27T17:25:10.308Z,7.20
2022-12-27T17:27:55.319Z,7.10
2022-12-27T17:30:23.912Z,7.00
2022-12-27T17:33:11.322Z,6.90
2022-12-27T17:35:45.962Z,6.80
2022-12-27T17:38:22.296Z,6.70
2022-12-27T17:40:49.227Z,6.60
2022-12-27T17:43:44.265Z,6.50
2022-12-27T17:46:30.254Z,6.40
2022-12-27T17:48:57.998Z,6.40
2022-12-27T17:51:33.322Z,6.40
2022-12-27T17:54:19.022Z,6.50
2022-12-27T17:57:12.296Z,6.50
2022-12-27T17:59:42.419Z,6.50
2022-12-27T18:02:48.413Z,6.50
2022-12-27T18:34:22.016Z,5.90
2022-12-27T18:36:57.142Z,5.90
2022-12-27T18:39:35.029Z,5.90
2022-12-27T18:42:13.200Z,5.90
2022-12-27T18:44:48.259Z,5.90
2022-12-27T18:47:25.040Z,5.90
2022-12-27T18:50:00.173Z,5.90
2022-12-27T18:52:42.103Z,5.90
2022-12-27T18:55:23.098Z,5.80
2022-12-27T18:58:07.096Z,5.90
2022-12-27T19:00:53.210Z,5.90
2022-12-27T19:03:27.096Z,6.00
2022-12-27T19:06:06.101Z,6.00
2022-12-27T19:08:36.200Z,6.00
2022-12-27T19:11:10.063Z,6.00
2022-12-27T19:13:47.403Z,5.90
2022-12-27T19:16:50.077Z,5.90
2022-12-27T19:19:18.677Z,5.90
2022-12-27T19:21:52.163Z,5.90
2022-12-27T19:24:39.341Z,5.90
2022-12-27T19:27:23.101Z,5.90
2022-12-27T19:29:58.199Z,5.90
2022-12-27T19:32:36.086Z,5.90
2022-12-27T19:35:10.101Z,5.90
2022-12-27T19:37:37.087Z,5.80
2022-12-27T19:40:11.139Z,5.90
2022-12-27T19:42:46.142Z,5.80
2022-12-27T19:45:16.758Z,5.80
2022-12-27T19:47:51.078Z,5.80
2022-12-27T19:50:18.217Z,5.80
2022-12-27T19:52:54.161Z,5.90
2022-12-27T19:55:22.522Z,5.90
2022-12-27T19:57:56.073Z,5.80
2022-12-27T20:00:31.128Z,5.70
2022-12-27T20:02:58.132Z,5.70
2022-12-27T20:06:11.747Z,5.60
2022-12-27T20:08:35.720Z,5.60
2022-12-27T20:11:12.202Z,5.60
2022-12-27T20:13:46.091Z,5.70
2022-12-27T20:16:13.917Z,5.80
2022-12-27T20:18:48.062Z,5.80
2022-12-27T20:21:16.312Z,5.70
2022-12-27T20:23:43.475Z,5.70
2022-12-27T20:26:17.043Z,5.60
2022-12-27T20:28:57.157Z,5.60
2022-12-27T20:31:31.201Z,5.60
2022-12-27T20:34:05.040Z,5.60
2022-12-27T20:36:31.980Z,5.60
2022-12-27T20:39:05.101Z,5.70
2022-12-27T20:41:31.942Z,5.70
2022-12-27T20:44:06.239Z,5.80
2022-12-27T20:46:33.221Z,5.90
2022-12-27T20:49:07.111Z,5.90
2022-12-27T20:51:40.083Z,5.80
2022-12-27T20:54:07.562Z,5.70
2022-12-27T20:56:42.162Z,5.60
2022-12-27T20:59:09.048Z,5.60
2022-12-27T21:01:42.145Z,5.50
2022-12-27T21:04:16.050Z,5.50
2022-12-27T21:06:49.060Z,5.50
2022-12-27T21:09:15.939Z,5.50
2022-12-27T21:11:49.079Z,5.40
2022-12-27T21:14:15.916Z,5.40
2022-12-27T21:16:49.134Z,5.40
2022-12-27T21:19:16.993Z,5.30
2022-12-27T21:21:51.070Z,5.30
2022-12-27T21:24:24.100Z,5.40
2022-12-27T21:26:57.036Z,5.40
2022-12-27T21:29:31.428Z,5.40
2022-12-27T21:32:05.046Z,5.30
2022-12-27T21:34:31.949Z,5.30
2022-12-27T21:37:13.051Z,5.20
2022-12-27T21:39:40.430Z,5.20
2022-12-27T21:42:14.153Z,5.10
2022-12-27T21:44:48.160Z,5.10
2022-12-27T21:47:15.164Z,5.00
2022-12-27T21:49:49.098Z,5.00
2022-12-27T21:52:15.967Z,5.00
2022-12-27T21:54:49.168Z,5.00
2022-12-27T21:57:26.120Z,5.00
2022-12-27T22:00:00.145Z,5.00
2022-12-27T22:02:34.235Z,5.10
2022-12-27T22:05:01.207Z,5.00
2022-12-27T22:07:35.087Z,5.00
2022-12-27T22:10:01.949Z,4.90
2022-12-27T22:12:35.118Z,4.90
2022-12-27T22:15:08.079Z,4.90
2022-12-27T22:17:34.954Z,4.90
2022-12-27T22:20:08.092Z,4.80
2022-12-27T22:22:34.935Z,4.90
2022-12-27T22:25:08.035Z,4.90
2022-12-27T22:27:48.064Z,5.00
2022-12-27T22:30:28.107Z,5.10
2022-12-27T22:33:01.118Z,5.10
2022-12-27T22:35:34.089Z,5.00
2022-12-27T22:38:00.942Z,5.00
2022-12-27T22:40:45.740Z,4.90
2022-12-27T22:43:20.091Z,4.80
2022-12-27T22:45:53.484Z,4.70
2022-12-27T22:48:27.074Z,4.70
2022-12-27T22:51:00.044Z,4.60
2022-12-27T22:53:26.974Z,4.60
2022-12-27T22:56:00.129Z,4.50
2022-12-27T22:58:33.552Z,4.50
2022-12-27T23:01:07.073Z,4.40
2022-12-27T23:03:33.907Z,4.40
2022-12-27T23:06:08.035Z,4.50
2022-12-27T23:08:42.073Z,4.50
2022-12-27T23:11:18.069Z,4.50
2022-12-27T23:13:45.309Z,4.50
2022-12-27T23:16:19.158Z,4.50
2022-12-27T23:18:46.175Z,4.50
2022-12-27T23:21:24.573Z,4.50
2022-12-27T23:23:52.032Z,4.40
2022-12-27T23:26:27.109Z,4.40
2022-12-27T23:29:07.266Z,4.40
2022-12-27T23:31:54.671Z,4.50
2022-12-27T23:34:27.678Z,4.50
2022-12-27T23:37:02.107Z,4.50
2022-12-27T23:39:29.050Z,4.50
2022-12-27T23:42:02.111Z,4.50
2022-12-27T23:44:34.184Z,4.50
2022-12-27T23:47:12.069Z,4.60
2022-12-27T23:49:38.950Z,4.60
2022-12-27T23:52:12.109Z,4.60
2022-12-27T23:54:38.989Z,4.60
2022-12-27T23:57:20.182Z,4.60
2022-12-27T23:59:49.979Z,4.50
